Time;durP1;ratioP1;P1;durP2;ratioP2;P2;SDS_P1;SDS_P2;PMS_P1;PMS_P2;Temp;Humidity;BMP_temperature;BMP_pressure;BME280_temperature;BME280_humidity;BME280_pressure;Samples;Min_cycle;Max_cycle;Signal;HPM_P1;HPM_P2
2022/01/21 10:03:28;;;;;;;8.23;4.22;;;;;;;-0.57;64.31;99404.68;1802498;78;23456;-36
2022/01/21 10:05:55;;;;;;;9.78;4.03;;;;;;;-0.61;64.52;99397.69;1805966;77;21420;-44
2022/01/21 10:08:33;;;;;;;11.18;4.97;;;;;;;-0.63;64.45;99387.38;1812123;78;21016;-35
2022/01/21 10:20:36;;;;;;;9.88;3.87;;;;;;;-0.52;64.18;99379.09;1805850;77;21016;-37
2022/01/21 10:26:47;;;;;;;16.60;6.78;;;;;;;0.07;62.79;99374.38;1808580;77;21646;-44
2022/01/21 10:29:15;;;;;;;10.63;4.25;;;;;;;0.46;61.01;99368.10;1781893;78;21685;-43
2022/01/21 10:32:38;;;;;;;14.50;7.87;;;;;;;0.68;60.23;99367.36;1784528;77;21004;-36
2022/01/21 10:35:29;;;;;;;13.18;5.20;;;;;;;0.83;59.88;99354.88;1809706;77;21439;-37
2022/01/21 10:38:30;;;;;;;18.57;5.67;;;;;;;1.04;59.55;99362.21;1803361;77;21550;-46
2022/01/21 10:41:28;;;;;;;13.00;5.10;;;;;;;1.18;59.07;99352.24;1807727;77;21043;-44
2022/01/21 10:47:53;;;;;;;9.65;5.30;;;;;;;1.59;57.22;99361.73;1812187;77;21806;-37
2022/01/21 10:55:51;;;;;;;11.83;4.50;;;;;;;1.66;56.78;99348.97;1807191;78;21108;-42
2022/01/21 10:59:13;;;;;;;7.10;3.70;;;;;;;1.91;56.85;99355.48;1814400;77;21783;-42
2022/01/21 11:02:19;;;;;;;8.63;5.53;;;;;;;2.29;56.00;99344.17;1808452;77;21091;-36
2022/01/21 11:05:28;;;;;;;10.68;5.70;;;;;;;2.70;54.26;99343.16;1802671;77;21458;-37
2022/01/21 11:09:01;;;;;;;11.33;4.92;;;;;;;2.92;53.92;99339.64;1806317;77;21357;-37
2022/01/21 11:20:41;;;;;;;7.60;3.40;;;;;;;3.38;50.99;99336.44;1804873;78;21028;-37
2022/01/21 11:24:29;;;;;;;6.78;3.72;;;;;;;3.10;50.90;99358.44;1806051;78;21475;-37
2022/01/21 11:31:00;;;;;;;7.75;4.10;;;;;;;2.66;52.70;99361.59;1806663;78;21404;-38
2022/01/21 11:34:22;;;;;;;8.93;5.67;;;;;;;2.44;53.38;99350.05;1809402;78;21019;-36
2022/01/21 11:37:19;;;;;;;10.80;5.07;;;;;;;2.52;53.42;99363.08;1809749;78;20992;-39
2022/01/21 11:40:28;;;;;;;18.00;5.50;;;;;;;2.74;53.00;99378.11;1797640;78;21527;-44
2022/01/21 11:43:30;;;;;;;13.53;5.30;;;;;;;2.62;53.79;99367.57;1809524;78;21069;-37
2022/01/21 11:50:22;;;;;;;10.40;4.53;;;;;;;1.95;54.95;99368.90;1788908;78;21087;-44
2022/01/21 11:53:59;;;;;;;9.40;3.95;;;;;;;1.39;57.01;99341.09;1808370;78;21940;-37
2022/01/21 11:57:12;;;;;;;11.70;4.15;;;;;;;1.39;58.20;99360.42;1804928;77;21621;-36
2022/01/21 12:00:41;;;;;;;;;;;;;;;1.78;57.29;99342.77;1806404;77;21091;-37
2022/01/21 12:03:52;;;;;;;8.25;2.95;;;;;;;1.43;57.48;99335.59;1797850;77;20128;-37
2022/01/21 12:07:01;;;;;;;9.58;3.62;;;;;;;0.87;58.59;99343.81;1804343;77;21507;-37
2022/01/21 12:10:07;;;;;;;12.82;5.90;;;;;;;0.49;60.04;99345.03;1805705;78;21930;-44
2022/01/21 12:13:13;;;;;;;8.08;4.12;;;;;;;0.26;61.35;99334.15;1802799;78;21367;-43
2022/01/21 12:19:08;;;;;;;20.97;7.95;;;;;;;0.21;62.40;99327.14;1805397;78;21573;-38
2022/01/21 12:21:37;;;;;;;9.13;3.17;;;;;;;0.09;62.59;99328.98;1802223;77;21039;-36
2022/01/21 12:24:48;;;;;;;9.03;3.45;;;;;;;0.05;62.44;99363.16;1804070;77;21000;-44
2022/01/21 12:27:15;;;;;;;10.23;4.03;;;;;;;0.26;62.22;99327.72;1805106;77;21000;-44
2022/01/21 12:29:42;;;;;;;26.93;9.00;;;;;;;1.09;60.56;99332.70;1805399;77;21019;-43
2022/01/21 12:32:26;;;;;;;10.75;3.70;;;;;;;1.68;58.38;99334.39;1804346;77;21393;-36
2022/01/21 12:35:08;;;;;;;6.83;2.52;;;;;;;2.08;55.24;99353.67;1793721;78;21349;-42
2022/01/21 12:41:05;;;;;;;5.85;2.60;;;;;;;1.18;52.16;99364.70;1812009;78;21367;-37
2022/01/21 12:43:41;;;;;;;7.47;3.33;;;;;;;0.60;54.58;99386.49;1802086;77;21494;-37
2022/01/21 12:46:14;;;;;;;4.03;2.50;;;;;;;0.36;55.98;99376.44;1803215;78;21078;-38
2022/01/21 12:48:47;;;;;;;;;;;;;;;0.17;57.54;99351.91;1810833;78;21318;-36
2022/01/21 12:51:45;;;;;;;8.13;3.22;;;;;;;0.05;57.44;99376.44;1802164;78;20112;-37
2022/01/21 12:57:01;;;;;;;9.90;2.85;;;;;;;-0.18;58.07;99358.67;1809228;78;20978;-37
2022/01/21 12:59:32;;;;;;;7.95;3.35;;;;;;;-0.18;57.88;99359.95;1803534;78;21287;-43
2022/01/21 13:02:05;;;;;;;7.37;2.58;;;;;;;-0.19;57.33;99403.21;1807709;78;21695;-43
2022/01/21 13:04:59;;;;;;;8.35;3.15;;;;;;;-0.36;57.94;99363.30;1807635;78;21437;-37
